sensor_id;sensor_type;location;lat;lon;timestamp;temperature;humidity
3051;DHT22;1535;51.098;6.414;2023-01-04T00:01:24;9.20;99.90
3051;DHT22;1535;51.098;6.414;2023-01-04T00:03:51;9.30;99.90
3051;DHT22;1535;51.098;6.414;2023-01-04T00:06:20;9.30;99.90
3051;DHT22;1535;51.098;6.414;2023-01-04T00:08:47;9.30;99.90
3051;DHT22;1535;51.098;6.414;2023-01-04T00:11:16;9.30;99.90
3051;DHT22;1535;51.098;6.414;2023-01-04T00:13:43;9.40;99.90
3051;DHT22;1535;51.098;6.414;2023-01-04T00:16:11;9.40;99.90
3051;DHT22;1535;51.098;6.414;2023-01-04T00:18:40;9.50;99.90
3051;DHT22;1535;51.098;6.414;2023-01-04T00:21:09;9.40;99.90
3051;DHT22;1535;51.098;6.414;2023-01-04T00:23:39;9.50;99.90
3051;DHT22;1535;51.098;6.414;2023-01-04T00:26:08;9.50;99.90
3051;DHT22;1535;51.098;6.414;2023-01-04T00:28:36;9.50;99.90
3051;DHT22;1535;51.098;6.414;2023-01-04T00:31:04;9.60;99.90
3051;DHT22;1535;51.098;6.414;2023-01-04T00:33:31;9.60;99.90
3051;DHT22;1535;51.098;6.414;2023-01-04T00:36:03;9.60;99.90
3051;DHT22;1535;51.098;6.414;2023-01-04T00:38:31;9.60;99.90
3051;DHT22;1535;51.098;6.414;2023-01-04T00:40:59;9.70;99.90
3051;DHT22;1535;51.098;6.414;2023-01-04T00:43:27;9.70;99.90
3051;DHT22;1535;51.098;6.414;2023-01-04T00:45:54;9.70;99.90
3051;DHT22;1535;51.098;6.414;2023-01-04T00:48:21;9.70;99.90
3051;DHT22;1535;51.098;6.414;2023-01-04T00:50:49;9.60;99.90
3051;DHT22;1535;51.098;6.414;2023-01-04T00:53:16;9.60;99.90
3051;DHT22;1535;51.098;6.414;2023-01-04T00:55:43;9.50;99.90
3051;DHT22;1535;51.098;6.414;2023-01-04T00:58:12;9.40;99.90
3051;DHT22;1535;51.098;6.414;2023-01-04T01:00:39;9.30;99.90
3051;DHT22;1535;51.098;6.414;2023-01-04T01:03:06;9.20;99.90
3051;DHT22;1535;51.098;6.414;2023-01-04T01:05:34;9.20;99.90
3051;DHT22;1535;51.098;6.414;2023-01-04T01:08:01;9.10;99.90
3051;DHT22;1535;51.098;6.414;2023-01-04T01:10:49;9.10;99.90
3051;DHT22;1535;51.098;6.414;2023-01-04T01:13:17;9.10;99.90
3051;DHT22;1535;51.098;6.414;2023-01-04T01:15:44;9.00;99.90
3051;DHT22;1535;51.098;6.414;2023-01-04T01:18:11;9.00;99.90
3051;DHT22;1535;51.098;6.414;2023-01-04T01:20:41;9.00;99.90
3051;DHT22;1535;51.098;6.414;2023-01-04T01:23:11;9.00;99.90
3051;DHT22;1535;51.098;6.414;2023-01-04T01:25:39;9.00;99.90
3051;DHT22;1535;51.098;6.414;2023-01-04T01:28:07;8.90;99.90
3051;DHT22;1535;51.098;6.414;2023-01-04T01:30:38;8.90;99.90
3051;DHT22;1535;51.098;6.414;2023-01-04T01:33:06;9.00;99.90
3051;DHT22;1535;51.098;6.414;2023-01-04T01:35:33;9.00;99.90
3051;DHT22;1535;51.098;6.414;2023-01-04T01:38:01;9.00;99.90
3051;DHT22;1535;51.098;6.414;2023-01-04T01:40:28;9.00;99.90
3051;DHT22;1535;51.098;6.414;2023-01-04T01:42:55;9.00;99.90
3051;DHT22;1535;51.098;6.414;2023-01-04T01:45:27;9.00;99.90
3051;DHT22;1535;51.098;6.414;2023-01-04T01:48:00;9.00;99.90
3051;DHT22;1535;51.098;6.414;2023-01-04T01:50:32;9.00;99.90
3051;DHT22;1535;51.098;6.414;2023-01-04T01:53:00;9.00;99.90
3051;DHT22;1535;51.098;6.414;2023-01-04T01:55:29;9.00;99.90
3051;DHT22;1535;51.098;6.414;2023-01-04T01:57:57;9.00;99.90
3051;DHT22;1535;51.098;6.414;2023-01-04T02:00:26;9.00;99.90
3051;DHT22;1535;51.098;6.414;2023-01-04T02:03:01;9.00;99.90
3051;DHT22;1535;51.098;6.414;2023-01-04T02:05:32;8.90;99.90
3051;DHT22;1535;51.098;6.414;2023-01-04T02:08:00;8.90;99.90
3051;DHT22;1535;51.098;6.414;2023-01-04T02:10:28;8.90;99.90
3051;DHT22;1535;51.098;6.414;2023-01-04T02:12:55;8.90;99.90
3051;DHT22;1535;51.098;6.414;2023-01-04T02:15:25;8.90;99.90
3051;DHT22;1535;51.098;6.414;2023-01-04T02:18:00;9.00;99.90
3051;DHT22;1535;51.098;6.414;2023-01-04T02:20:39;8.90;99.90
3051;DHT22;1535;51.098;6.414;2023-01-04T02:27:01;9.00;99.90
3051;DHT22;1535;51.098;6.414;2023-01-04T02:30:04;9.10;99.90
3051;DHT22;1535;51.098;6.414;2023-01-04T02:32:50;9.10;99.90
3051;DHT22;1535;51.098;6.414;2023-01-04T02:35:27;9.10;99.90
3051;DHT22;1535;51.098;6.414;2023-01-04T02:38:02;9.10;99.90
3051;DHT22;1535;51.098;6.414;2023-01-04T02:40:36;9.20;99.90
3051;DHT22;1535;51.098;6.414;2023-01-04T02:43:11;9.20;99.90
3051;DHT22;1535;51.098;6.414;2023-01-04T02:46:01;9.30;99.90
3051;DHT22;1535;51.098;6.414;2023-01-04T02:48:35;9.30;99.90
3051;DHT22;1535;51.098;6.414;2023-01-04T02:51:28;9.40;99.90
3051;DHT22;1535;51.098;6.414;2023-01-04T02:53:56;9.40;99.90
3051;DHT22;1535;51.098;6.414;2023-01-04T02:56:29;9.50;99.90
3051;DHT22;1535;51.098;6.414;2023-01-04T03:02:00;9.50;99.90
3051;DHT22;1535;51.098;6.414;2023-01-04T03:04:53;9.50;99.90
3051;DHT22;1535;51.098;6.414;2023-01-04T03:07:47;9.60;99.90
3051;DHT22;1535;51.098;6.414;2023-01-04T03:10:20;9.60;99.90
3051;DHT22;1535;51.098;6.414;2023-01-04T03:12:53;9.60;99.90
3051;DHT22;1535;51.098;6.414;2023-01-04T03:15:22;9.70;99.90
3051;DHT22;1535;51.098;6.414;2023-01-04T03:17:53;9.70;99.90
3051;DHT22;1535;51.098;6.414;2023-01-04T03:20:22;9.70;99.90
3051;DHT22;1535;51.098;6.414;2023-01-04T03:22:53;9.80;99.90
3051;DHT22;1535;51.098;6.414;2023-01-04T03:25:40;9.80;99.90
3051;DHT22;1535;51.098;6.414;2023-01-04T03:28:28;9.80;99.90
3051;DHT22;1535;51.098;6.414;2023-01-04T03:31:18;9.80;99.90
3051;DHT22;1535;51.098;6.414;2023-01-04T03:34:05;9.80;99.90
3051;DHT22;1535;51.098;6.414;2023-01-04T03:36:57;9.90;99.90
3051;DHT22;1535;51.098;6.414;2023-01-04T03:39:33;10.00;99.90
3051;DHT22;1535;51.098;6.414;2023-01-04T03:42:31;10.00;99.90
3051;DHT22;1535;51.098;6.414;2023-01-04T03:45:22;10.00;99.90
3051;DHT22;1535;51.098;6.414;2023-01-04T03:48:10;10.00;99.90
3051;DHT22;1535;51.098;6.414;2023-01-04T03:51:00;10.00;99.90
3051;DHT22;1535;51.098;6.414;2023-01-04T03:53:32;9.90;99.90
3051;DHT22;1535;51.098;6.414;2023-01-04T03:56:01;9.90;99.90
3051;DHT22;1535;51.098;6.414;2023-01-04T03:58:29;9.80;99.90
3051;DHT22;1535;51.098;6.414;2023-01-04T04:00:56;9.80;99.90
3051;DHT22;1535;51.098;6.414;2023-01-04T04:03:28;9.80;99.90
3051;DHT22;1535;51.098;6.414;2023-01-04T04:06:13;9.90;99.90
3051;DHT22;1535;51.098;6.414;2023-01-04T04:09:00;9.90;99.90
3051;DHT22;1535;51.098;6.414;2023-01-04T04:11:27;9.90;99.90
3051;DHT22;1535;51.098;6.414;2023-01-04T04:13:58;10.00;99.90
3051;DHT22;1535;51.098;6.414;2023-01-04T04:16:25;10.00;99.90
3051;DHT22;1535;51.098;6.414;2023-01-04T04:18:52;10.00;99.90
3051;DHT22;1535;51.098;6.414;2023-01-04T04:21:19;10.00;99.90
3051;DHT22;1535;51.098;6.414;2023-01-04T04:23:46;10.10;99.90
3051;DHT22;1535;51.098;6.414;2023-01-04T04:26:15;10.10;99.90
3051;DHT22;1535;51.098;6.414;2023-01-04T04:28:42;10.10;99.90
3051;DHT22;1535;51.098;6.414;2023-01-04T04:31:10;10.20;99.90
3051;DHT22;1535;51.098;6.414;2023-01-04T04:33:37;10.20;99.90
3051;DHT22;1535;51.098;6.414;2023-01-04T04:36:06;10.20;99.90
3051;DHT22;1535;51.098;6.414;2023-01-04T04:38:35;10.20;99.90
3051;DHT22;1535;51.098;6.414;2023-01-04T04:41:06;10.20;99.90
3051;DHT22;1535;51.098;6.414;2023-01-04T04:43:52;10.20;99.90
3051;DHT22;1535;51.098;6.414;2023-01-04T04:46:19;10.30;99.90
3051;DHT22;1535;51.098;6.414;2023-01-04T04:48:46;10.30;99.90
3051;DHT22;1535;51.098;6.414;2023-01-04T04:51:13;10.30;99.90
3051;DHT22;1535;51.098;6.414;2023-01-04T04:53:40;10.30;99.90
3051;DHT22;1535;51.098;6.414;2023-01-04T04:56:06;10.30;99.90
3051;DHT22;1535;51.098;6.414;2023-01-04T04:58:33;10.30;99.90
3051;DHT22;1535;51.098;6.414;2023-01-04T05:01:01;10.40;99.90
3051;DHT22;1535;51.098;6.414;2023-01-04T05:03:28;10.40;99.90
3051;DHT22;1535;51.098;6.414;2023-01-04T05:05:55;10.40;99.90
3051;DHT22;1535;51.098;6.414;2023-01-04T05:08:22;10.50;99.90
3051;DHT22;1535;51.098;6.414;2023-01-04T05:10:48;10.50;99.90
3051;DHT22;1535;51.098;6.414;2023-01-04T05:13:15;10.60;99.90
3051;DHT22;1535;51.098;6.414;2023-01-04T05:15:43;10.50;99.90
3051;DHT22;1535;51.098;6.414;2023-01-04T05:18:14;10.60;99.90
3051;DHT22;1535;51.098;6.414;2023-01-04T05:20:41;10.60;99.90
3051;DHT22;1535;51.098;6.414;2023-01-04T05:23:10;10.60;99.90
3051;DHT22;1535;51.098;6.414;2023-01-04T05:25:37;10.60;99.90
3051;DHT22;1535;51.098;6.414;2023-01-04T05:28:05;10.50;99.90
3051;DHT22;1535;51.098;6.414;2023-01-04T05:30:32;10.50;99.90
3051;DHT22;1535;51.098;6.414;2023-01-04T05:33:20;10.60;99.90
3051;DHT22;1535;51.098;6.414;2023-01-04T05:35:47;10.60;99.90
3051;DHT22;1535;51.098;6.414;2023-01-04T05:38:14;10.60;99.90
3051;DHT22;1535;51.098;6.414;2023-01-04T05:40:42;10.70;99.90
3051;DHT22;1535;51.098;6.414;2023-01-04T05:43:09;10.70;99.90
3051;DHT22;1535;51.098;6.414;2023-01-04T05:45:36;10.70;99.90
3051;DHT22;1535;51.098;6.414;2023-01-04T05:48:03;10.70;99.90
3051;DHT22;1535;51.098;6.414;2023-01-04T05:50:31;10.80;99.90
3051;DHT22;1535;51.098;6.414;2023-01-04T05:52:58;10.80;99.90
3051;DHT22;1535;51.098;6.414;2023-01-04T05:55:25;10.80;99.90
3051;DHT22;1535;51.098;6.414;2023-01-04T05:57:52;10.80;99.90
3051;DHT22;1535;51.098;6.414;2023-01-04T06:00:20;10.80;99.90
3051;DHT22;1535;51.098;6.414;2023-01-04T06:02:46;10.80;99.90
3051;DHT22;1535;51.098;6.414;2023-01-04T06:05:13;10.80;99.90
3051;DHT22;1535;51.098;6.414;2023-01-04T06:07:41;10.80;99.90
3051;DHT22;1535;51.098;6.414;2023-01-04T06:10:10;10.90;99.90
3051;DHT22;1535;51.098;6.414;2023-01-04T06:12:37;10.90;99.90
3051;DHT22;1535;51.098;6.414;2023-01-04T06:15:05;10.90;99.90
3051;DHT22;1535;51.098;6.414;2023-01-04T06:17:33;10.90;99.90
3051;DHT22;1535;51.098;6.414;2023-01-04T06:20:01;10.90;99.90
3051;DHT22;1535;51.098;6.414;2023-01-04T06:22:28;10.90;99.90
3051;DHT22;1535;51.098;6.414;2023-01-04T06:24:58;11.00;99.90
3051;DHT22;1535;51.098;6.414;2023-01-04T06:27:25;11.00;99.90
3051;DHT22;1535;51.098;6.414;2023-01-04T06:29:52;11.00;99.90
3051;DHT22;1535;51.098;6.414;2023-01-04T06:32:19;11.00;99.90
3051;DHT22;1535;51.098;6.414;2023-01-04T06:34:46;11.10;99.90
3051;DHT22;1535;51.098;6.414;2023-01-04T06:37:13;11.10;99.90
3051;DHT22;1535;51.098;6.414;2023-01-04T06:39:40;11.10;99.90
3051;DHT22;1535;51.098;6.414;2023-01-04T06:42:08;11.10;99.90
3051;DHT22;1535;51.098;6.414;2023-01-04T06:44:56;11.10;99.90
3051;DHT22;1535;51.098;6.414;2023-01-04T06:47:23;11.20;99.90
3051;DHT22;1535;51.098;6.414;2023-01-04T06:49:51;11.20;99.90
3051;DHT22;1535;51.098;6.414;2023-01-04T06:52:19;11.20;99.90
3051;DHT22;1535;51.098;6.414;2023-01-04T06:54:46;11.20;99.90
3051;DHT22;1535;51.098;6.414;2023-01-04T06:57:14;11.20;99.90
3051;DHT22;1535;51.098;6.414;2023-01-04T06:59:41;11.10;99.90
3051;DHT22;1535;51.098;6.414;2023-01-04T07:02:11;11.20;99.90
3051;DHT22;1535;51.098;6.414;2023-01-04T07:04:39;11.20;99.90
3051;DHT22;1535;51.098;6.414;2023-01-04T07:07:06;11.20;99.90
3051;DHT22;1535;51.098;6.414;2023-01-04T07:09:33;11.20;99.90
3051;DHT22;1535;51.098;6.414;2023-01-04T07:12:00;11.20;99.90
3051;DHT22;1535;51.098;6.414;2023-01-04T07:14:28;11.20;99.90
3051;DHT22;1535;51.098;6.414;2023-01-04T07:16:55;11.20;99.90
3051;DHT22;1535;51.098;6.414;2023-01-04T07:19:22;11.30;99.90
3051;DHT22;1535;51.098;6.414;2023-01-04T07:21:49;11.30;99.90
3051;DHT22;1535;51.098;6.414;2023-01-04T07:24:18;11.40;99.90
3051;DHT22;1535;51.098;6.414;2023-01-04T07:26:45;11.40;99.90
3051;DHT22;1535;51.098;6.414;2023-01-04T07:29:13;11.30;99.90
3051;DHT22;1535;51.098;6.414;2023-01-04T07:31:41;11.40;99.90
3051;DHT22;1535;51.098;6.414;2023-01-04T07:34:09;11.30;99.90
3051;DHT22;1535;51.098;6.414;2023-01-04T07:36:36;11.30;99.90
3051;DHT22;1535;51.098;6.414;2023-01-04T07:39:03;11.30;99.90
3051;DHT22;1535;51.098;6.414;2023-01-04T07:41:31;11.40;99.90
3051;DHT22;1535;51.098;6.414;2023-01-04T07:43:58;11.40;99.90
3051;DHT22;1535;51.098;6.414;2023-01-04T07:46:26;11.40;99.90
3051;DHT22;1535;51.098;6.414;2023-01-04T07:48:55;11.40;99.90
3051;DHT22;1535;51.098;6.414;2023-01-04T07:51:21;11.40;99.90
3051;DHT22;1535;51.098;6.414;2023-01-04T07:53:48;11.40;99.90
3051;DHT22;1535;51.098;6.414;2023-01-04T07:56:15;11.40;99.90
3051;DHT22;1535;51.098;6.414;2023-01-04T07:58:42;11.30;99.90
3051;DHT22;1535;51.098;6.414;2023-01-04T08:01:11;11.30;99.90
3051;DHT22;1535;51.098;6.414;2023-01-04T08:03:38;11.30;99.90
3051;DHT22;1535;51.098;6.414;2023-01-04T08:06:08;11.30;99.90
3051;DHT22;1535;51.098;6.414;2023-01-04T08:08:35;11.40;99.90
3051;DHT22;1535;51.098;6.414;2023-01-04T08:11:02;11.40;99.90
3051;DHT22;1535;51.098;6.414;2023-01-04T08:13:30;11.40;99.90
3051;DHT22;1535;51.098;6.414;2023-01-04T08:15:56;11.40;99.90
3051;DHT22;1535;51.098;6.414;2023-01-04T08:18:23;11.30;99.90
3051;DHT22;1535;51.098;6.414;2023-01-04T08:21:00;11.30;99.90
3051;DHT22;1535;51.098;6.414;2023-01-04T08:23:28;11.30;99.90
3051;DHT22;1535;51.098;6.414;2023-01-04T08:25:55;11.40;99.90
3051;DHT22;1535;51.098;6.414;2023-01-04T08:28:26;11.40;99.90
3051;DHT22;1535;51.098;6.414;2023-01-04T08:30:53;11.30;99.90
3051;DHT22;1535;51.098;6.414;2023-01-04T08:33:20;11.30;99.90
3051;DHT22;1535;51.098;6.414;2023-01-04T08:35:47;11.10;99.90
3051;DHT22;1535;51.098;6.414;2023-01-04T08:38:14;11.10;99.90
3051;DHT22;1535;51.098;6.414;2023-01-04T08:40:42;11.10;99.90
3051;DHT22;1535;51.098;6.414;2023-01-04T08:43:08;11.10;99.90
3051;DHT22;1535;51.098;6.414;2023-01-04T08:45:35;11.10;99.90
3051;DHT22;1535;51.098;6.414;2023-01-04T08:48:02;11.10;99.90
3051;DHT22;1535;51.098;6.414;2023-01-04T08:50:30;11.20;99.90
3051;DHT22;1535;51.098;6.414;2023-01-04T08:52:57;11.20;99.90
3051;DHT22;1535;51.098;6.414;2023-01-04T08:55:24;11.30;99.90
3051;DHT22;1535;51.098;6.414;2023-01-04T08:57:52;11.40;99.90
3051;DHT22;1535;51.098;6.414;2023-01-04T09:00:19;11.40;99.90
3051;DHT22;1535;51.098;6.414;2023-01-04T09:02:47;11.50;99.90
3051;DHT22;1535;51.098;6.414;2023-01-04T09:05:13;11.60;99.90
3051;DHT22;1535;51.098;6.414;2023-01-04T09:07:40;11.60;99.90
3051;DHT22;1535;51.098;6.414;2023-01-04T09:10:08;11.70;99.90
3051;DHT22;1535;51.098;6.414;2023-01-04T09:12:36;11.70;99.90
3051;DHT22;1535;51.098;6.414;2023-01-04T09:15:05;11.80;99.90
3051;DHT22;1535;51.098;6.414;2023-01-04T09:17:32;11.80;99.90
3051;DHT22;1535;51.098;6.414;2023-01-04T09:20:00;11.90;99.90
3051;DHT22;1535;51.098;6.414;2023-01-04T09:22:26;11.90;99.90
3051;DHT22;1535;51.098;6.414;2023-01-04T09:24:53;11.90;99.90
3051;DHT22;1535;51.098;6.414;2023-01-04T09:27:20;11.90;99.90
3051;DHT22;1535;51.098;6.414;2023-01-04T09:29:47;11.90;99.90
3051;DHT22;1535;51.098;6.414;2023-01-04T09:32:15;11.90;99.90
3051;DHT22;1535;51.098;6.414;2023-01-04T09:34:42;12.00;99.90
3051;DHT22;1535;51.098;6.414;2023-01-04T09:37:09;12.00;99.90
3051;DHT22;1535;51.098;6.414;2023-01-04T09:39:35;12.00;99.90
3051;DHT22;1535;51.098;6.414;2023-01-04T09:42:13;12.00;99.90
3051;DHT22;1535;51.098;6.414;2023-01-04T09:44:44;12.00;99.90
3051;DHT22;1535;51.098;6.414;2023-01-04T09:47:16;12.10;99.90
3051;DHT22;1535;51.098;6.414;2023-01-04T09:49:47;12.00;99.90
3051;DHT22;1535;51.098;6.414;2023-01-04T09:52:18;11.90;99.90
3051;DHT22;1535;51.098;6.414;2023-01-04T09:54:48;11.70;99.90
3051;DHT22;1535;51.098;6.414;2023-01-04T09:57:20;11.60;99.90
3051;DHT22;1535;51.098;6.414;2023-01-04T09:59:50;11.50;99.90
3051;DHT22;1535;51.098;6.414;2023-01-04T10:02:28;11.50;99.90
3051;DHT22;1535;51.098;6.414;2023-01-04T10:04:59;11.50;99.90
3051;DHT22;1535;51.098;6.414;2023-01-04T10:07:29;11.50;99.90
3051;DHT22;1535;51.098;6.414;2023-01-04T10:09:58;11.40;99.90
3051;DHT22;1535;51.098;6.414;2023-01-04T10:12:33;11.40;99.90
3051;DHT22;1535;51.098;6.414;2023-01-04T10:15:15;11.40;99.90
3051;DHT22;1535;51.098;6.414;2023-01-04T10:17:55;11.40;99.90
3051;DHT22;1535;51.098;6.414;2023-01-04T10:20:39;11.30;99.90
3051;DHT22;1535;51.098;6.414;2023-01-04T10:23:13;11.30;99.90
3051;DHT22;1535;51.098;6.414;2023-01-04T10:25:49;11.30;99.90
3051;DHT22;1535;51.098;6.414;2023-01-04T10:28:32;11.30;99.90
3051;DHT22;1535;51.098;6.414;2023-01-04T10:31:08;11.30;99.90
3051;DHT22;1535;51.098;6.414;2023-01-04T10:33:45;11.40;99.90
3051;DHT22;1535;51.098;6.414;2023-01-04T10:36:18;11.40;99.90
3051;DHT22;1535;51.098;6.414;2023-01-04T10:38:45;11.50;99.90
3051;DHT22;1535;51.098;6.414;2023-01-04T10:41:19;11.50;99.90
3051;DHT22;1535;51.098;6.414;2023-01-04T10:43:58;11.50;99.90
3051;DHT22;1535;51.098;6.414;2023-01-04T10:46:28;11.60;99.90
3051;DHT22;1535;51.098;6.414;2023-01-04T10:48:59;11.50;99.90
3051;DHT22;1535;51.098;6.414;2023-01-04T10:51:33;11.50;99.90
3051;DHT22;1535;51.098;6.414;2023-01-04T10:54:05;11.60;99.90
3051;DHT22;1535;51.098;6.414;2023-01-04T10:56:38;11.60;99.90
3051;DHT22;1535;51.098;6.414;2023-01-04T10:59:12;11.60;99.90
3051;DHT22;1535;51.098;6.414;2023-01-04T11:01:46;11.60;99.90
3051;DHT22;1535;51.098;6.414;2023-01-04T11:04:21;11.60;99.90
3051;DHT22;1535;51.098;6.414;2023-01-04T11:06:52;11.60;99.90
3051;DHT22;1535;51.098;6.414;2023-01-04T11:09:24;11.50;99.90
3051;DHT22;1535;51.098;6.414;2023-01-04T11:11:54;11.60;99.90
3051;DHT22;1535;51.098;6.414;2023-01-04T11:14:22;11.50;99.90
3051;DHT22;1535;51.098;6.414;2023-01-04T11:16:53;11.60;99.90
3051;DHT22;1535;51.098;6.414;2023-01-04T11:19:23;11.50;99.90
3051;DHT22;1535;51.098;6.414;2023-01-04T11:21:52;11.50;99.90
3051;DHT22;1535;51.098;6.414;2023-01-04T11:24:24;11.50;99.90
3051;DHT22;1535;51.098;6.414;2023-01-04T11:26:52;11.50;99.90
3051;DHT22;1535;51.098;6.414;2023-01-04T11:29:28;11.50;99.90
3051;DHT22;1535;51.098;6.414;2023-01-04T11:32:01;11.60;99.90
3051;DHT22;1535;51.098;6.414;2023-01-04T11:34:47;11.50;99.90
3051;DHT22;1535;51.098;6.414;2023-01-04T11:37:27;11.50;99.90
3051;DHT22;1535;51.098;6.414;2023-01-04T11:40:21;11.60;99.90
3051;DHT22;1535;51.098;6.414;2023-01-04T11:42:50;11.70;99.90
3051;DHT22;1535;51.098;6.414;2023-01-04T11:45:20;11.70;99.90
3051;DHT22;1535;51.098;6.414;2023-01-04T11:47:49;11.70;99.90
3051;DHT22;1535;51.098;6.414;2023-01-04T11:50:39;11.70;99.90
3051;DHT22;1535;51.098;6.414;2023-01-04T11:53:25;11.70;99.90
3051;DHT22;1535;51.098;6.414;2023-01-04T11:56:08;11.80;99.90
3051;DHT22;1535;51.098;6.414;2023-01-04T11:58:35;11.80;99.90
3051;DHT22;1535;51.098;6.414;2023-01-04T12:01:02;11.90;99.90
3051;DHT22;1535;51.098;6.414;2023-01-04T12:03:31;11.80;99.90
3051;DHT22;1535;51.098;6.414;2023-01-04T12:06:02;12.00;99.90
3051;DHT22;1535;51.098;6.414;2023-01-04T12:08:31;12.00;99.90
3051;DHT22;1535;51.098;6.414;2023-01-04T12:11:00;12.00;99.90
3051;DHT22;1535;51.098;6.414;2023-01-04T12:13:28;12.00;99.90
3051;DHT22;1535;51.098;6.414;2023-01-04T12:16:02;12.00;99.90
3051;DHT22;1535;51.098;6.414;2023-01-04T12:18:35;11.90;99.90
3051;DHT22;1535;51.098;6.414;2023-01-04T12:21:04;11.80;99.90
3051;DHT22;1535;51.098;6.414;2023-01-04T12:23:32;11.70;99.90
3051;DHT22;1535;51.098;6.414;2023-01-04T12:26:00;11.70;99.90
3051;DHT22;1535;51.098;6.414;2023-01-04T12:28:29;11.70;99.90
3051;DHT22;1535;51.098;6.414;2023-01-04T12:31:29;11.60;99.90
3051;DHT22;1535;51.098;6.414;2023-01-04T12:33:58;11.70;99.90
3051;DHT22;1535;51.098;6.414;2023-01-04T12:36:56;11.70;99.90
3051;DHT22;1535;51.098;6.414;2023-01-04T12:39:36;11.80;99.90
3051;DHT22;1535;51.098;6.414;2023-01-04T12:42:17;11.80;99.90
3051;DHT22;1535;51.098;6.414;2023-01-04T12:44:57;11.80;99.90
3051;DHT22;1535;51.098;6.414;2023-01-04T12:47:39;11.90;99.90
3051;DHT22;1535;51.098;6.414;2023-01-04T12:50:23;11.90;99.90
3051;DHT22;1535;51.098;6.414;2023-01-04T12:52:54;11.80;99.90
3051;DHT22;1535;51.098;6.414;2023-01-04T12:55:25;11.90;99.90
3051;DHT22;1535;51.098;6.414;2023-01-04T12:57:53;11.90;99.90
3051;DHT22;1535;51.098;6.414;2023-01-04T13:00:20;11.90;99.90
3051;DHT22;1535;51.098;6.414;2023-01-04T13:05:57;11.90;99.90
3051;DHT22;1535;51.098;6.414;2023-01-04T13:08:27;12.00;99.90
3051;DHT22;1535;51.098;6.414;2023-01-04T13:10:58;11.90;99.90
3051;DHT22;1535;51.098;6.414;2023-01-04T13:13:31;11.90;99.90
3051;DHT22;1535;51.098;6.414;2023-01-04T13:16:10;11.90;99.90
3051;DHT22;1535;51.098;6.414;2023-01-04T13:18:40;11.90;99.90
3051;DHT22;1535;51.098;6.414;2023-01-04T13:21:13;12.00;99.90
3051;DHT22;1535;51.098;6.414;2023-01-04T13:23:47;12.00;99.90
3051;DHT22;1535;51.098;6.414;2023-01-04T13:26:38;12.00;99.90
3051;DHT22;1535;51.098;6.414;2023-01-04T13:29:11;12.10;99.90
3051;DHT22;1535;51.098;6.414;2023-01-04T13:31:45;12.10;99.90
3051;DHT22;1535;51.098;6.414;2023-01-04T13:34:17;12.00;99.90
3051;DHT22;1535;51.098;6.414;2023-01-04T13:36:53;12.10;99.90
3051;DHT22;1535;51.098;6.414;2023-01-04T13:39:22;12.10;99.90
3051;DHT22;1535;51.098;6.414;2023-01-04T13:41:49;12.10;99.90
3051;DHT22;1535;51.098;6.414;2023-01-04T13:44:22;12.20;99.90
3051;DHT22;1535;51.098;6.414;2023-01-04T13:46:54;12.20;99.90
3051;DHT22;1535;51.098;6.414;2023-01-04T13:49:21;12.20;99.90
3051;DHT22;1535;51.098;6.414;2023-01-04T13:51:48;12.30;99.90
3051;DHT22;1535;51.098;6.414;2023-01-04T13:54:22;12.30;99.90
3051;DHT22;1535;51.098;6.414;2023-01-04T13:56:49;12.30;99.90
3051;DHT22;1535;51.098;6.414;2023-01-04T13:59:19;12.20;99.90
3051;DHT22;1535;51.098;6.414;2023-01-04T14:01:47;12.20;99.90
3051;DHT22;1535;51.098;6.414;2023-01-04T14:04:19;12.20;99.90
3051;DHT22;1535;51.098;6.414;2023-01-04T14:06:50;12.20;99.90
3051;DHT22;1535;51.098;6.414;2023-01-04T14:09:21;12.20;99.90
3051;DHT22;1535;51.098;6.414;2023-01-04T14:11:53;12.20;99.90
3051;DHT22;1535;51.098;6.414;2023-01-04T14:14:33;12.30;99.90
3051;DHT22;1535;51.098;6.414;2023-01-04T14:17:21;12.30;99.90
3051;DHT22;1535;51.098;6.414;2023-01-04T14:19:51;12.30;99.90
3051;DHT22;1535;51.098;6.414;2023-01-04T14:22:33;12.40;99.90
3051;DHT22;1535;51.098;6.414;2023-01-04T14:25:40;12.40;99.90
3051;DHT22;1535;51.098;6.414;2023-01-04T14:31:29;12.60;99.90
3051;DHT22;1535;51.098;6.414;2023-01-04T14:33:57;12.60;99.90
3051;DHT22;1535;51.098;6.414;2023-01-04T14:36:26;12.60;99.90
3051;DHT22;1535;51.098;6.414;2023-01-04T14:39:27;12.50;99.90
3051;DHT22;1535;51.098;6.414;2023-01-04T14:41:56;12.40;99.90
3051;DHT22;1535;51.098;6.414;2023-01-04T14:44:25;12.40;99.90
3051;DHT22;1535;51.098;6.414;2023-01-04T14:46:56;12.30;99.90
3051;DHT22;1535;51.098;6.414;2023-01-04T14:49:23;12.30;99.90
3051;DHT22;1535;51.098;6.414;2023-01-04T14:51:53;12.30;99.90
3051;DHT22;1535;51.098;6.414;2023-01-04T14:54:21;12.40;99.90
3051;DHT22;1535;51.098;6.414;2023-01-04T14:56:49;12.40;99.90
3051;DHT22;1535;51.098;6.414;2023-01-04T14:59:17;12.40;99.90
3051;DHT22;1535;51.098;6.414;2023-01-04T15:01:48;12.50;99.90
3051;DHT22;1535;51.098;6.414;2023-01-04T15:04:14;12.50;99.90
3051;DHT22;1535;51.098;6.414;2023-01-04T15:06:47;12.60;99.90
3051;DHT22;1535;51.098;6.414;2023-01-04T15:09:14;12.60;99.90
3051;DHT22;1535;51.098;6.414;2023-01-04T15:11:41;12.60;99.90
3051;DHT22;1535;51.098;6.414;2023-01-04T15:14:09;12.60;99.90
3051;DHT22;1535;51.098;6.414;2023-01-04T15:16:37;12.50;99.90
3051;DHT22;1535;51.098;6.414;2023-01-04T15:19:04;12.50;99.90
3051;DHT22;1535;51.098;6.414;2023-01-04T15:21:31;12.50;99.90
3051;DHT22;1535;51.098;6.414;2023-01-04T15:23:58;12.50;99.90
3051;DHT22;1535;51.098;6.414;2023-01-04T15:26:24;12.50;99.90
3051;DHT22;1535;51.098;6.414;2023-01-04T15:28:51;12.60;99.90
3051;DHT22;1535;51.098;6.414;2023-01-04T15:31:18;12.60;99.90
3051;DHT22;1535;51.098;6.414;2023-01-04T15:33:46;12.60;99.90
3051;DHT22;1535;51.098;6.414;2023-01-04T15:36:14;12.60;99.90
3051;DHT22;1535;51.098;6.414;2023-01-04T15:38:42;12.60;99.90
3051;DHT22;1535;51.098;6.414;2023-01-04T15:41:11;12.70;99.90
3051;DHT22;1535;51.098;6.414;2023-01-04T15:44:01;12.70;99.90
3051;DHT22;1535;51.098;6.414;2023-01-04T15:46:27;12.70;99.90
3051;DHT22;1535;51.098;6.414;2023-01-04T15:48:55;12.80;99.90
3051;DHT22;1535;51.098;6.414;2023-01-04T15:51:22;12.70;99.90
3051;DHT22;1535;51.098;6.414;2023-01-04T15:53:49;12.50;99.90
3051;DHT22;1535;51.098;6.414;2023-01-04T15:56:17;12.40;99.90
3051;DHT22;1535;51.098;6.414;2023-01-04T15:58:45;12.20;99.90
3051;DHT22;1535;51.098;6.414;2023-01-04T16:01:13;12.10;99.90
3051;DHT22;1535;51.098;6.414;2023-01-04T16:03:40;12.10;99.90
3051;DHT22;1535;51.098;6.414;2023-01-04T16:06:10;12.00;99.90
3051;DHT22;1535;51.098;6.414;2023-01-04T16:08:38;12.00;99.90
3051;DHT22;1535;51.098;6.414;2023-01-04T16:11:09;12.00;99.90
3051;DHT22;1535;51.098;6.414;2023-01-04T16:13:37;12.00;99.90
3051;DHT22;1535;51.098;6.414;2023-01-04T16:16:05;12.00;99.90
3051;DHT22;1535;51.098;6.414;2023-01-04T16:18:32;12.10;99.90
3051;DHT22;1535;51.098;6.414;2023-01-04T16:20:59;12.00;99.90
3051;DHT22;1535;51.098;6.414;2023-01-04T16:23:27;12.10;99.90
3051;DHT22;1535;51.098;6.414;2023-01-04T16:26:08;12.00;99.90
3051;DHT22;1535;51.098;6.414;2023-01-04T16:28:34;12.10;99.90
3051;DHT22;1535;51.098;6.414;2023-01-04T16:31:02;12.10;99.90
3051;DHT22;1535;51.098;6.414;2023-01-04T16:33:29;12.10;99.90
3051;DHT22;1535;51.098;6.414;2023-01-04T16:36:01;12.20;99.90
3051;DHT22;1535;51.098;6.414;2023-01-04T16:38:29;12.30;99.90
3051;DHT22;1535;51.098;6.414;2023-01-04T16:40:58;12.20;99.90
3051;DHT22;1535;51.098;6.414;2023-01-04T16:43:26;12.20;99.90